Time;durP1;ratioP1;P1;durP2;ratioP2;P2;SDS_P1;SDS_P2;PMS_P1;PMS_P2;Temp;Humidity;BMP_temperature;BMP_pressure;BME280_temperature;BME280_humidity;BME280_pressure;Samples;Min_cycle;Max_cycle;Signal;HPM_P1;HPM_P2
2021/04/05 00:00:07;;;;;;;;;;;15.00;71.50;;;;;;5052172;28;20436;-58
2021/04/05 00:02:32;;;;;;;;;;;14.90;72.20;;;;;;5045695;28;20366;-57
2021/04/05 00:05:08;;;;;;;;;;;15.00;72.10;;;;;;5026001;28;19921;-57
2021/04/05 00:07:34;;;;;;;;;;;15.30;72.30;;;;;;5032110;28;19913;-59
2021/04/05 00:09:59;;;;;;;;;;;15.00;71.80;;;;;;5032194;28;19916;-58
2021/04/05 00:12:25;;;;;;;;;;;15.00;72.30;;;;;;5032074;28;19913;-57
2021/04/05 00:14:51;;;;;;;;;;;14.90;71.70;;;;;;5032212;28;19928;-58
2021/04/05 00:17:16;;;;;;;;;;;15.00;72.10;;;;;;5032205;28;19948;-58
2021/04/05 00:19:42;;;;;;;;;;;15.20;72.20;;;;;;5032302;28;19913;-58
2021/04/05 00:22:08;;;;;;;;;;;15.00;72.20;;;;;;5034379;28;20051;-57
2021/04/05 00:24:33;;;;;;;;;;;14.90;72.30;;;;;;5036387;28;19916;-57
2021/04/05 00:26:59;;;;;;;;;;;14.90;72.20;;;;;;5036075;28;20004;-57
2021/04/05 00:29:24;;;;;;;;;;;14.90;72.00;;;;;;5018353;28;20003;-58
2021/04/05 00:31:50;;;;;;;;;;;14.90;72.50;;;;;;5036007;28;19913;-58
2021/04/05 00:34:15;;;;;;;;;;;14.50;71.80;;;;;;5036158;28;19917;-57
2021/04/05 00:36:42;;;;;;;;;;;14.90;72.30;;;;;;5036343;28;19967;-57
2021/04/05 00:39:07;;;;;;;;;;;14.90;72.40;;;;;;5036253;28;19915;-58
2021/04/05 00:41:33;;;;;;;;;;;14.70;72.00;;;;;;5035955;28;19988;-58
2021/04/05 00:43:58;;;;;;;;;;;14.90;72.70;;;;;;5035756;28;19910;-58
2021/04/05 00:46:25;;;;;;;;;;;14.90;72.40;;;;;;5035684;28;19909;-57
2021/04/05 00:48:50;;;;;;;;;;;14.90;72.40;;;;;;5036150;28;19909;-58
2021/04/05 00:51:18;;;;;;;;;;;14.90;72.30;;;;;;5035851;28;19920;-59
2021/04/05 00:53:45;;;;;;;;;;;14.90;72.60;;;;;;5035924;28;20287;-60
2021/04/05 00:56:14;;;;;;;;;;;14.60;72.40;;;;;;5035801;28;20020;-58
2021/04/05 00:58:40;;;;;;;;;;;14.90;72.70;;;;;;5035894;28;19966;-57
2021/04/05 01:01:07;;;;;;;;;;;14.80;72.40;;;;;;5035587;28;19913;-58
2021/04/05 01:03:34;;;;;;;;;;;14.80;72.90;;;;;;5035425;28;19909;-58
2021/04/05 01:06:02;;;;;;;;;;;14.70;73.00;;;;;;5034991;28;19921;-58
2021/04/05 01:08:27;;;;;;;;;;;14.80;72.80;;;;;;5035376;28;19909;-58
2021/04/05 01:10:53;;;;;;;;;;;14.80;72.60;;;;;;5017938;28;19910;-60
2021/04/05 01:13:19;;;;;;;;;;;14.80;72.90;;;;;;5035317;28;19909;-58
2021/04/05 01:15:45;;;;;;;;;;;14.70;72.90;;;;;;5035507;28;19936;-58
2021/04/05 01:18:12;;;;;;;;;;;14.70;70.00;;;;;;5035446;28;20012;-58
2021/04/05 01:20:37;;;;;;;;;;;14.80;72.60;;;;;;5035449;28;19916;-58
2021/04/05 01:23:03;;;;;;;;;;;14.70;72.70;;;;;;5035404;28;19909;-58
2021/04/05 01:25:29;;;;;;;;;;;14.70;72.70;;;;;;5035030;28;19915;-58
2021/04/05 01:27:55;;;;;;;;;;;14.70;72.90;;;;;;5035421;28;19909;-58
2021/04/05 01:30:31;;;;;;;;;;;14.70;73.10;;;;;;5035205;28;19915;-57
2021/04/05 01:32:56;;;;;;;;;;;;;;;;;;5034598;28;19948;-58
2021/04/05 01:35:22;;;;;;;;;;;14.70;73.10;;;;;;5035080;28;19991;-58
2021/04/05 01:37:47;;;;;;;;;;;14.70;72.50;;;;;;5035152;28;19909;-58
2021/04/05 01:40:13;;;;;;;;;;;14.50;72.50;;;;;;5035047;28;19913;-58
2021/04/05 01:42:38;;;;;;;;;;;14.70;72.60;;;;;;5034793;28;20268;-58
2021/04/05 01:45:04;;;;;;;;;;;14.70;72.70;;;;;;5016947;28;19909;-59
2021/04/05 01:47:30;;;;;;;;;;;14.70;73.00;;;;;;5034931;28;19909;-58
2021/04/05 01:49:55;;;;;;;;;;;14.60;72.90;;;;;;5034713;28;19939;-58
2021/04/05 01:52:21;;;;;;;;;;;14.60;69.40;;;;;;5034925;28;19921;-58
2021/04/05 01:54:46;;;;;;;;;;;14.60;72.60;;;;;;5034811;28;19952;-58
2021/04/05 01:57:12;;;;;;;;;;;14.70;72.60;;;;;;5034612;28;19920;-58
2021/04/05 01:59:38;;;;;;;;;;;14.60;72.80;;;;;;5034547;28;20378;-60
2021/04/05 02:02:04;;;;;;;;;;;14.60;73.60;;;;;;5034750;28;19909;-58
2021/04/05 02:04:32;;;;;;;;;;;14.80;73.90;;;;;;5034142;28;20322;-58
2021/04/05 02:06:57;;;;;;;;;;;14.60;73.50;;;;;;5034600;28;19929;-58
2021/04/05 02:09:23;;;;;;;;;;;14.40;73.40;;;;;;5034748;28;19909;-58
2021/04/05 02:11:48;;;;;;;;;;;14.50;73.90;;;;;;5034587;28;19916;-58
2021/04/05 02:14:14;;;;;;;;;;;14.60;73.90;;;;;;5034300;28;19939;-60
2021/04/05 02:16:40;;;;;;;;;;;14.50;73.80;;;;;;5034583;28;19928;-58
2021/04/05 02:19:05;;;;;;;;;;;14.60;73.70;;;;;;5034525;28;20275;-59
2021/04/05 02:21:31;;;;;;;;;;;14.60;73.50;;;;;;5034005;28;20122;-58
2021/04/05 02:24:00;;;;;;;;;;;14.60;74.10;;;;;;5034273;28;20032;-58
2021/04/05 02:26:28;;;;;;;;;;;14.50;73.80;;;;;;5034234;28;20070;-59
2021/04/05 02:28:55;;;;;;;;;;;14.50;73.90;;;;;;5033930;28;19971;-59
2021/04/05 02:31:22;;;;;;;;;;;14.60;73.80;;;;;;5034180;28;19917;-58
2021/04/05 02:33:48;;;;;;;;;;;14.60;74.20;;;;;;5033794;28;19917;-58
2021/04/05 02:36:15;;;;;;;;;;;14.50;74.00;;;;;;5033921;28;19971;-58
2021/04/05 02:38:42;;;;;;;;;;;14.50;73.90;;;;;;5034074;28;20005;-59
2021/04/05 02:41:09;;;;;;;;;;;14.70;73.90;;;;;;5034051;28;19916;-59
2021/04/05 02:43:39;;;;;;;;;;;14.50;73.80;;;;;;5033191;28;19909;-59
2021/04/05 02:46:05;;;;;;;;;;;14.50;74.10;;;;;;5033650;28;19963;-59
2021/04/05 02:48:31;;;;;;;;;;;14.50;73.90;;;;;;5033848;28;19955;-59
2021/04/05 02:50:58;;;;;;;;;;;14.50;74.00;;;;;;5033822;28;19913;-59
2021/04/05 02:53:23;;;;;;;;;;;14.60;73.90;;;;;;5033408;28;19960;-57
2021/04/05 02:55:49;;;;;;;;;;;14.40;74.00;;;;;;5033672;28;19940;-61
2021/04/05 02:58:15;;;;;;;;;;;14.50;73.80;;;;;;5033644;28;19939;-60
2021/04/05 03:00:40;;;;;;;;;;;14.40;73.80;;;;;;5033659;28;20347;-59
2021/04/05 03:03:06;;;;;;;;;;;14.30;74.40;;;;;;5033405;28;19920;-60
2021/04/05 03:05:32;;;;;;;;;;;14.40;74.20;;;;;;5032584;28;19963;-59
2021/04/05 03:07:57;;;;;;;;;;;14.50;74.30;;;;;;5033447;28;19910;-60
2021/04/05 03:10:25;;;;;;;;;;;14.40;74.40;;;;;;5015269;28;20290;-60
2021/04/05 03:12:53;;;;;;;;;;;14.40;74.40;;;;;;5032958;28;19910;-58
2021/04/05 03:15:19;;;;;;;;;;;14.50;74.40;;;;;;5033136;28;19925;-59
2021/04/05 03:17:44;;;;;;;;;;;14.40;74.40;;;;;;5032982;28;19909;-60
2021/04/05 03:20:14;;;;;;;;;;;14.60;74.90;;;;;;5033318;28;20275;-59
2021/04/05 03:22:41;;;;;;;;;;;14.40;74.60;;;;;;5032766;28;19916;-59
2021/04/05 03:25:19;;;;;;;;;;;14.40;74.50;;;;;;5033030;28;19913;-58
2021/04/05 03:27:45;;;;;;;;;;;14.20;74.60;;;;;;5033113;28;19917;-59
2021/04/05 03:30:12;;;;;;;;;;;14.20;74.50;;;;;;5032916;28;20494;-59
2021/04/05 03:32:39;;;;;;;;;;;14.40;74.40;;;;;;5032893;28;19916;-60
2021/04/05 03:35:05;;;;;;;;;;;14.30;74.60;;;;;;5032941;28;19924;-59
2021/04/05 03:37:32;;;;;;;;;;;14.40;74.60;;;;;;5033046;28;19913;-59
2021/04/05 03:39:58;;;;;;;;;;;14.30;75.10;;;;;;5032793;28;19909;-59
2021/04/05 03:42:50;;;;;;;;;;;14.30;75.10;;;;;;5032896;28;19917;-59
2021/04/05 03:45:21;;;;;;;;;;;14.40;74.80;;;;;;5029446;28;19916;-59
2021/04/05 03:48:01;;;;;;;;;;;14.30;74.70;;;;;;5032642;28;19909;-59
2021/04/05 03:50:32;;;;;;;;;;;14.30;72.10;;;;;;5039185;28;19913;-59
2021/04/05 03:52:58;;;;;;;;;;;;;;;;;;5032406;28;19913;-59
2021/04/05 03:55:25;;;;;;;;;;;14.40;75.10;;;;;;5032427;28;20278;-59
2021/04/05 03:57:52;;;;;;;;;;;14.40;75.10;;;;;;5032393;28;19913;-59
2021/04/05 04:00:19;;;;;;;;;;;14.30;74.60;;;;;;5032425;28;20011;-59
2021/04/05 04:02:54;;;;;;;;;;;14.50;75.20;;;;;;5032654;28;19916;-60
2021/04/05 04:05:28;;;;;;;;;;;14.20;74.90;;;;;;5031601;28;20003;-59
2021/04/05 04:10:28;;;;;;;;;;;14.30;74.80;;;;;;5039142;28;19916;-58
2021/04/05 04:12:54;;;;;;;;;;;14.30;75.00;;;;;;5032122;28;20003;-59
2021/04/05 04:15:20;;;;;;;;;;;14.50;73.70;;;;;;5032256;28;19917;-60
2021/04/05 04:17:46;;;;;;;;;;;14.30;74.90;;;;;;5032256;28;19966;-60
2021/04/05 04:20:15;;;;;;;;;;;14.20;74.90;;;;;;5032265;28;19917;-59
2021/04/05 04:22:42;;;;;;;;;;;14.30;75.10;;;;;;5032478;28;20264;-60
2021/04/05 04:25:07;;;;;;;;;;;14.20;74.60;;;;;;5032134;28;19963;-60
2021/04/05 04:27:33;;;;;;;;;;;;;;;;;;5032341;28;19999;-60
2021/04/05 04:29:59;;;;;;;;;;;;;;;;;;5032326;28;19909;-60
2021/04/05 04:32:25;;;;;;;;;;;;;;;;;;5031982;28;19975;-60
2021/04/05 04:34:51;;;;;;;;;;;14.30;75.20;;;;;;5032250;28;19954;-58
2021/04/05 04:37:17;;;;;;;;;;;14.30;75.20;;;;;;5032058;28;19913;-59
2021/04/05 04:39:43;;;;;;;;;;;14.30;75.10;;;;;;5032051;28;20363;-59
2021/04/05 04:42:09;;;;;;;;;;;14.30;75.20;;;;;;5032021;28;19956;-58
2021/04/05 04:44:34;;;;;;;;;;;13.90;74.70;;;;;;5031859;28;20000;-60
2021/04/05 04:47:00;;;;;;;;;;;14.20;75.40;;;;;;5031773;28;19956;-59
2021/04/05 04:49:25;;;;;;;;;;;14.20;75.40;;;;;;5031899;28;19915;-60
2021/04/05 04:51:51;;;;;;;;;;;14.20;75.20;;;;;;5032080;28;19918;-60
2021/04/05 04:54:16;;;;;;;;;;;14.40;75.20;;;;;;5032082;28;19921;-59
2021/04/05 04:56:42;;;;;;;;;;;14.40;75.20;;;;;;5031844;28;20367;-59
2021/04/05 04:59:08;;;;;;;;;;;14.40;75.30;;;;;;5031925;28;19913;-59
2021/04/05 05:01:35;;;;;;;;;;;14.10;75.40;;;;;;5031751;28;19913;-59
2021/04/05 05:04:03;;;;;;;;;;;14.20;75.60;;;;;;5031698;28;19913;-60
2021/04/05 05:06:29;;;;;;;;;;;14.20;76.20;;;;;;5031024;28;20343;-59
2021/04/05 05:08:55;;;;;;;;;;;;;;;;;;5034663;28;20398;-59
2021/04/05 05:11:20;;;;;;;;;;;14.30;76.10;;;;;;5017621;28;19956;-59
2021/04/05 05:13:46;;;;;;;;;;;;;;;;;;5035287;28;20444;-60
2021/04/05 05:16:12;;;;;;;;;;;14.50;76.40;;;;;;5035478;28;20045;-59
2021/04/05 05:18:38;;;;;;;;;;;14.70;75.70;;;;;;5017586;28;19909;-59
2021/04/05 05:21:11;;;;;;;;;;;14.90;75.30;;;;;;5035209;28;19915;-58
2021/04/05 05:23:38;;;;;;;;;;;14.90;75.20;;;;;;5017778;28;19936;-59
2021/04/05 05:26:04;;;;;;;;;;;15.30;74.80;;;;;;5035350;28;19978;-59
2021/04/05 05:28:31;;;;;;;;;;;15.50;74.30;;;;;;5017341;28;19923;-59
2021/04/05 05:30:57;;;;;;;;;;;15.40;74.20;;;;;;5035331;28;20260;-59
2021/04/05 05:33:22;;;;;;;;;;;15.50;74.00;;;;;;5034999;28;19916;-59
2021/04/05 05:35:49;;;;;;;;;;;15.50;73.60;;;;;;5034859;28;20268;-59
2021/04/05 05:38:15;;;;;;;;;;;15.80;72.60;;;;;;5035045;28;19933;-59
2021/04/05 05:40:43;;;;;;;;;;;15.80;73.40;;;;;;5034814;28;19909;-59
2021/04/05 05:43:19;;;;;;;;;;;15.70;73.00;;;;;;5035047;28;19941;-60
2021/04/05 05:46:00;;;;;;;;;;;15.90;73.20;;;;;;5041357;28;20260;-59
2021/04/05 05:48:37;;;;;;;;;;;15.90;73.50;;;;;;5034793;28;20372;-59
2021/04/05 05:51:17;;;;;;;;;;;15.90;73.20;;;;;;5034681;28;19921;-59
2021/04/05 05:53:42;;;;;;;;;;;15.80;73.20;;;;;;5034460;28;19955;-59
2021/04/05 05:56:27;;;;;;;;;;;15.70;73.40;;;;;;5034365;28;19941;-59
2021/04/05 05:58:58;;;;;;;;;;;15.60;73.00;;;;;;5034251;28;19917;-59
2021/04/05 06:01:40;;;;;;;;;;;15.50;73.70;;;;;;5034280;28;19909;-59
2021/04/05 06:04:18;;;;;;;;;;;15.70;74.00;;;;;;5034648;28;19909;-59
2021/04/05 06:06:52;;;;;;;;;;;15.80;74.00;;;;;;5033482;28;19971;-59
2021/04/05 06:09:36;;;;;;;;;;;15.70;73.90;;;;;;5034502;28;19909;-58
2021/04/05 06:12:16;;;;;;;;;;;15.70;74.00;;;;;;5034119;28;20342;-58
2021/04/05 06:14:50;;;;;;;;;;;15.60;74.00;;;;;;5034204;28;19925;-58
2021/04/05 06:17:19;;;;;;;;;;;15.60;74.00;;;;;;5034426;28;19909;-57
2021/04/05 06:19:46;;;;;;;;;;;15.70;74.30;;;;;;5034230;28;19915;-58
2021/04/05 06:22:18;;;;;;;;;;;15.50;74.10;;;;;;5016271;28;19917;-57
2021/04/05 06:25:02;;;;;;;;;;;15.50;73.80;;;;;;5033964;28;19909;-58
2021/04/05 06:27:34;;;;;;;;;;;15.20;73.80;;;;;;5034158;28;19960;-59
2021/04/05 06:30:02;;;;;;;;;;;15.40;74.50;;;;;;5034118;28;19909;-60
2021/04/05 06:32:46;;;;;;;;;;;15.20;74.00;;;;;;5033799;28;19933;-60
2021/04/05 06:35:26;;;;;;;;;;;15.10;74.50;;;;;;5033636;28;19925;-60
2021/04/05 06:38:12;;;;;;;;;;;15.40;74.60;;;;;;5034142;28;20027;-60
2021/04/05 06:40:39;;;;;;;;;;;15.20;74.20;;;;;;5033169;28;19913;-60
2021/04/05 06:43:28;;;;;;;;;;;15.20;74.80;;;;;;5033916;28;19971;-59
2021/04/05 06:45:57;;;;;;;;;;;15.10;74.50;;;;;;5033640;28;19940;-60
2021/04/05 06:48:23;;;;;;;;;;;15.10;74.30;;;;;;5033543;28;19948;-59
2021/04/05 06:50:48;;;;;;;;;;;15.10;74.80;;;;;;5033687;28;19963;-61
2021/04/05 06:53:20;;;;;;;;;;;15.30;74.60;;;;;;5033411;28;19963;-58
2021/04/05 06:55:46;;;;;;;;;;;15.10;74.70;;;;;;5033618;28;20288;-60
2021/04/05 06:58:16;;;;;;;;;;;15.10;75.00;;;;;;5033364;28;19971;-60
2021/04/05 07:00:51;;;;;;;;;;;15.20;75.00;;;;;;5033461;28;19979;-60
2021/04/05 07:03:16;;;;;;;;;;;15.10;75.90;;;;;;5033242;28;19909;-57
2021/04/05 07:05:46;;;;;;;;;;;15.10;75.60;;;;;;5032420;28;19925;-56
2021/04/05 07:08:26;;;;;;;;;;;15.10;75.50;;;;;;5033178;28;19928;-57
2021/04/05 07:11:03;;;;;;;;;;;15.20;75.50;;;;;;5033482;28;19917;-57
2021/04/05 07:13:47;;;;;;;;;;;15.20;75.00;;;;;;5033411;28;19932;-56
2021/04/05 07:16:24;;;;;;;;;;;15.00;75.00;;;;;;5033065;28;20334;-56
2021/04/05 07:19:10;;;;;;;;;;;15.20;74.70;;;;;;5032619;28;20206;-57
2021/04/05 07:21:54;;;;;;;;;;;15.40;74.90;;;;;;5032951;28;19909;-56
2021/04/05 07:24:40;;;;;;;;;;;15.40;74.60;;;;;;5032787;28;19909;-57
2021/04/05 07:27:14;;;;;;;;;;;15.30;74.70;;;;;;5033212;28;19916;-57
2021/04/05 07:29:58;;;;;;;;;;;15.30;74.80;;;;;;5032563;28;19971;-58
2021/04/05 07:32:41;;;;;;;;;;;15.60;74.30;;;;;;5033030;28;19909;-57
2021/04/05 07:35:07;;;;;;;;;;;18.10;75.90;;;;;;5032835;28;19968;-57
2021/04/05 07:37:35;;;;;;;;;;;15.10;74.00;;;;;;5032900;28;19967;-58
2021/04/05 07:40:23;;;;;;;;;;;15.40;74.00;;;;;;5032776;28;19910;-57
2021/04/05 07:43:04;;;;;;;;;;;15.60;74.40;;;;;;5032791;28;19913;-57
2021/04/05 07:45:39;;;;;;;;;;;15.40;74.10;;;;;;5032901;28;19952;-57
2021/04/05 07:48:10;;;;;;;;;;;15.50;73.90;;;;;;5032493;28;20318;-57
2021/04/05 07:50:55;;;;;;;;;;;15.30;74.30;;;;;;5032481;28;19915;-57
2021/04/05 07:53:21;;;;;;;;;;;15.40;73.80;;;;;;5032592;28;19952;-59
2021/04/05 07:55:48;;;;;;;;;;;15.30;74.60;;;;;;5032634;28;20344;-51
2021/04/05 07:58:32;;;;;;;;;;;15.30;74.50;;;;;;5032404;28;19967;-51
2021/04/05 08:01:01;;;;;;;;;;;15.10;75.20;;;;;;5032349;28;19909;-54
2021/04/05 08:03:35;;;;;;;;;;;15.30;74.60;;;;;;5032490;28;20295;-53
2021/04/05 08:06:08;;;;;;;;;;;15.30;73.30;;;;;;5031565;28;19917;-54
2021/04/05 08:08:43;;;;;;;;;;;15.30;72.20;;;;;;5012597;28;19917;-58
2021/04/05 08:11:18;;;;;;;;;;;15.70;72.10;;;;;;5012397;28;19964;-53
2021/04/05 08:14:02;;;;;;;;;;;15.40;71.50;;;;;;5012276;28;19961;-56
2021/04/05 08:16:28;;;;;;;;;;;;;;;;;;5012441;28;19917;-55
2021/04/05 08:19:07;;;;;;;;;;;15.60;70.50;;;;;;5012774;28;19909;-53
2021/04/05 08:21:35;;;;;;;;;;;15.40;69.80;;;;;;5032151;28;20268;-56
2021/04/05 08:24:01;;;;;;;;;;;15.30;69.80;;;;;;5032519;28;19909;-57
2021/04/05 08:26:36;;;;;;;;;;;15.20;70.60;;;;;;5032180;28;19936;-57
2021/04/05 08:29:05;;;;;;;;;;;15.30;70.00;;;;;;5014747;28;19917;-57
2021/04/05 08:31:35;;;;;;;;;;;15.40;70.30;;;;;;5032308;28;19910;-58
2021/04/05 08:34:14;;;;;;;;;;;15.40;70.10;;;;;;5032600;28;20004;-57
2021/04/05 08:36:43;;;;;;;;;;;15.20;70.00;;;;;;5032307;28;19924;-56
2021/04/05 08:39:42;;;;;;;;;;;15.20;71.10;;;;;;5032089;28;19909;-58
2021/04/05 08:42:19;;;;;;;;;;;15.20;70.40;;;;;;4999370;28;19917;-57
2021/04/05 08:44:50;;;;;;;;;;;15.20;69.90;;;;;;5036094;28;20058;-58
2021/04/05 08:47:18;;;;;;;;;;;14.40;69.20;;;;;;5042609;28;20505;-58
2021/04/05 08:49:45;;;;;;;;;;;15.20;69.60;;;;;;5036031;28;19987;-53
2021/04/05 08:52:12;;;;;;;;;;;15.60;69.60;;;;;;5036088;28;19909;-57
2021/04/05 08:54:38;;;;;;;;;;;;;;;;;;5035642;28;20026;-58
2021/04/05 08:57:08;;;;;;;;;;;14.90;68.60;;;;;;5017889;28;20310;-58
2021/04/05 08:59:52;;;;;;;;;;;15.30;68.60;;;;;;5035814;28;19909;-57
2021/04/05 09:02:17;;;;;;;;;;;15.30;69.40;;;;;;5035607;28;19952;-57
2021/04/05 09:04:44;;;;;;;;;;;15.50;69.40;;;;;;5035663;28;19959;-57
2021/04/05 09:07:19;;;;;;;;;;;15.30;68.70;;;;;;5034677;28;19929;-58
2021/04/05 09:09:47;;;;;;;;;;;15.40;68.50;;;;;;5017706;28;20355;-57
2021/04/05 09:12:13;;;;;;;;;;;15.50;68.20;;;;;;5035493;28;19924;-57
2021/04/05 09:14:52;;;;;;;;;;;15.40;68.00;;;;;;5035549;28;20271;-57
2021/04/05 09:17:28;;;;;;;;;;;15.30;67.80;;;;;;5015584;28;20016;-57
2021/04/05 09:20:05;;;;;;;;;;;15.30;67.70;;;;;;5029899;28;20283;-57
2021/04/05 09:23:09;;;;;;;;;;;15.40;67.90;;;;;;5035160;28;20378;-57
2021/04/05 09:25:46;;;;;;;;;;;15.40;67.20;;;;;;4973986;28;19910;-57
2021/04/05 09:28:28;;;;;;;;;;;15.40;67.30;;;;;;4974150;28;19914;-57
2021/04/05 09:31:07;;;;;;;;;;;15.40;66.90;;;;;;5014003;28;19995;-59
2021/04/05 09:33:55;;;;;;;;;;;15.20;66.60;;;;;;5035193;28;20358;-58
2021/04/05 09:36:29;;;;;;;;;;;15.20;66.40;;;;;;5017333;28;19979;-56
2021/04/05 09:39:07;;;;;;;;;;;15.20;66.20;;;;;;5034944;28;20359;-58
2021/04/05 09:41:48;;;;;;;;;;;15.20;66.40;;;;;;5034881;28;19959;-57
2021/04/05 09:44:19;;;;;;;;;;;15.40;63.50;;;;;;5035236;28;19913;-57
2021/04/05 09:46:45;;;;;;;;;;;;;;;;;;5034855;28;19909;-58
2021/04/05 09:49:26;;;;;;;;;;;15.30;67.40;;;;;;5034637;28;20359;-58
2021/04/05 09:52:10;;;;;;;;;;;15.20;68.80;;;;;;5016921;28;20413;-58
2021/04/05 09:54:38;;;;;;;;;;;15.30;70.50;;;;;;5034213;28;19936;-57
2021/04/05 09:57:07;;;;;;;;;;;15.20;71.60;;;;;;5034683;28;19950;-58
2021/04/05 09:59:51;;;;;;;;;;;15.20;73.20;;;;;;5034466;28;19913;-58
2021/04/05 10:02:24;;;;;;;;;;;15.30;73.50;;;;;;5034666;28;19909;-58
2021/04/05 10:04:50;;;;;;;;;;;15.10;75.00;;;;;;5034556;28;20389;-56
2021/04/05 10:07:16;;;;;;;;;;;15.20;75.30;;;;;;5033826;28;19965;-57
2021/04/05 10:09:42;;;;;;;;;;;15.10;76.30;;;;;;5034495;28;20008;-58
2021/04/05 10:12:08;;;;;;;;;;;15.10;76.40;;;;;;5034619;28;19956;-57
2021/04/05 10:14:39;;;;;;;;;;;15.10;76.80;;;;;;5034426;28;19917;-58
2021/04/05 10:17:05;;;;;;;;;;;15.00;77.70;;;;;;5034185;28;19909;-58
2021/04/05 10:19:35;;;;;;;;;;;15.10;78.10;;;;;;5034288;28;20283;-58
2021/04/05 10:22:04;;;;;;;;;;;15.30;78.40;;;;;;5033826;28;19917;-57
2021/04/05 10:24:32;;;;;;;;;;;15.00;78.20;;;;;;5033652;28;19944;-56
2021/04/05 10:26:58;;;;;;;;;;;15.20;78.00;;;;;;5034335;28;20306;-57
2021/04/05 10:29:29;;;;;;;;;;;15.20;78.40;;;;;;5034423;28;20334;-57
2021/04/05 10:31:56;;;;;;;;;;;15.30;75.00;;;;;;5034127;28;19909;-56
2021/04/05 10:34:23;;;;;;;;;;;15.40;78.20;;;;;;5034270;28;19967;-55
2021/04/05 10:36:51;;;;;;;;;;;15.40;78.20;;;;;;5016273;28;19992;-54
2021/04/05 10:39:16;;;;;;;;;;;15.50;78.10;;;;;;5033988;28;19932;-56
2021/04/05 10:41:47;;;;;;;;;;;15.50;77.70;;;;;;5034218;28;19913;-56
2021/04/05 10:44:14;;;;;;;;;;;15.70;77.90;;;;;;5034251;28;19924;-57
2021/04/05 10:46:45;;;;;;;;;;;15.70;78.20;;;;;;5034103;28;20019;-56
2021/04/05 10:49:14;;;;;;;;;;;15.80;77.80;;;;;;5034016;28;19935;-56
2021/04/05 10:51:41;;;;;;;;;;;16.00;78.10;;;;;;5033578;28;19978;-56
2021/04/05 10:54:13;;;;;;;;;;;16.10;77.20;;;;;;5033643;28;20018;-55
2021/04/05 10:56:43;;;;;;;;;;;16.10;77.20;;;;;;5033735;28;20047;-56
2021/04/05 10:59:15;;;;;;;;;;;16.10;76.50;;;;;;5033414;28;19916;-56
2021/04/05 11:01:47;;;;;;;;;;;16.10;76.70;;;;;;5033526;28;20274;-57
2021/04/05 11:04:13;;;;;;;;;;;16.00;76.50;;;;;;5033105;28;20384;-57
2021/04/05 11:06:39;;;;;;;;;;;16.30;76.90;;;;;;5031903;28;19932;-57
2021/04/05 11:09:08;;;;;;;;;;;16.40;76.40;;;;;;5033122;28;19909;-57
2021/04/05 11:11:34;;;;;;;;;;;16.20;75.60;;;;;;5033275;28;19993;-56
2021/04/05 11:14:02;;;;;;;;;;;16.20;76.20;;;;;;5032892;28;19973;-57
2021/04/05 11:16:28;;;;;;;;;;;16.20;76.80;;;;;;5032834;28;19999;-56
2021/04/05 11:18:59;;;;;;;;;;;16.20;76.50;;;;;;5032923;28;19997;-56
2021/04/05 11:21:41;;;;;;;;;;;16.30;76.30;;;;;;5033177;28;19913;-56
2021/04/05 11:24:08;;;;;;;;;;;16.30;75.80;;;;;;5033155;28;19974;-57
2021/04/05 11:26:35;;;;;;;;;;;16.30;76.30;;;;;;5032711;28;20360;-56
2021/04/05 11:29:03;;;;;;;;;;;16.40;77.00;;;;;;5033231;28;19939;-57
2021/04/05 11:31:36;;;;;;;;;;;16.20;76.40;;;;;;5033023;28;19956;-57
2021/04/05 11:34:02;;;;;;;;;;;16.50;76.40;;;;;;5032542;28;19976;-56
2021/04/05 11:36:39;;;;;;;;;;;16.50;76.20;;;;;;5032775;28;19917;-56
2021/04/05 11:39:06;;;;;;;;;;;16.60;76.90;;;;;;5032998;28;19915;-56
2021/04/05 11:41:32;;;;;;;;;;;;;;;;;;5032989;28;19913;-56
2021/04/05 11:44:00;;;;;;;;;;;16.60;76.10;;;;;;5032421;28;20283;-52
2021/04/05 11:46:34;;;;;;;;;;;16.60;75.60;;;;;;5032357;28;19916;-56
2021/04/05 11:49:08;;;;;;;;;;;16.60;75.10;;;;;;5014791;28;19928;-56
2021/04/05 11:51:44;;;;;;;;;;;16.60;74.70;;;;;;5032791;28;19913;-56
2021/04/05 11:54:15;;;;;;;;;;;16.30;73.50;;;;;;5032400;28;19919;-57
2021/04/05 11:56:44;;;;;;;;;;;16.70;74.10;;;;;;5032707;28;19909;-57
2021/04/05 11:59:23;;;;;;;;;;;16.60;73.90;;;;;;5032336;28;20000;-57
2021/04/05 12:01:53;;;;;;;;;;;16.60;74.10;;;;;;5032201;28;19909;-57
2021/04/05 12:04:20;;;;;;;;;;;16.60;74.20;;;;;;5032313;28;19916;-57
2021/04/05 12:06:52;;;;;;;;;;;16.50;72.80;;;;;;5031639;28;19975;-56
2021/04/05 12:09:23;;;;;;;;;;;16.50;72.60;;;;;;5014607;28;19914;-56
2021/04/05 12:11:51;;;;;;;;;;;16.50;72.00;;;;;;5032265;28;19909;-57
2021/04/05 12:14:21;;;;;;;;;;;16.50;72.00;;;;;;5032164;28;19913;-54
2021/04/05 12:16:50;;;;;;;;;;;16.50;70.90;;;;;;5035165;28;19909;-52
2021/04/05 12:19:20;;;;;;;;;;;16.40;69.80;;;;;;5038785;28;19913;-55
2021/04/05 12:21:49;;;;;;;;;;;16.30;68.80;;;;;;5038743;28;19909;-55
2021/04/05 12:24:14;;;;;;;;;;;16.50;67.70;;;;;;5039063;28;19964;-52
2021/04/05 12:26:40;;;;;;;;;;;16.50;67.50;;;;;;5038762;28;20355;-54
2021/04/05 12:29:07;;;;;;;;;;;16.40;67.00;;;;;;5039034;28;19910;-55
2021/04/05 12:31:33;;;;;;;;;;;16.50;67.30;;;;;;5038668;28;20256;-54
2021/04/05 12:34:07;;;;;;;;;;;16.40;66.70;;;;;;5038734;28;20366;-55
2021/04/05 12:36:33;;;;;;;;;;;16.40;67.60;;;;;;5038716;28;19917;-57
2021/04/05 12:38:59;;;;;;;;;;;16.40;68.10;;;;;;5020733;28;19991;-59
2021/04/05 12:41:30;;;;;;;;;;;16.30;67.80;;;;;;5038600;28;19909;-58
2021/04/05 12:43:56;;;;;;;;;;;;;;;;;;5020763;28;19909;-57
2021/04/05 12:46:22;;;;;;;;;;;16.30;70.30;;;;;;5038561;28;20289;-58
2021/04/05 12:48:48;;;;;;;;;;;;;;;;;;5038563;28;19920;-59
2021/04/05 12:51:16;;;;;;;;;;;16.40;71.60;;;;;;5038671;28;20035;-58
2021/04/05 12:53:42;;;;;;;;;;;16.40;71.50;;;;;;5038715;28;19963;-58
2021/04/05 12:56:15;;;;;;;;;;;16.30;72.20;;;;;;5038378;28;20294;-58
2021/04/05 12:58:40;;;;;;;;;;;16.30;72.80;;;;;;5045145;28;19948;-57
2021/04/05 13:01:06;;;;;;;;;;;16.30;73.40;;;;;;5038409;28;20384;-57
2021/04/05 13:03:43;;;;;;;;;;;16.30;73.60;;;;;;5038322;28;19920;-57
2021/04/05 13:06:11;;;;;;;;;;;16.30;74.30;;;;;;5037699;28;20375;-58
2021/04/05 13:08:52;;;;;;;;;;;16.30;74.70;;;;;;5038589;28;20055;-43
2021/04/05 13:11:19;;;;;;;;;;;16.30;74.50;;;;;;5038444;28;20291;-42
2021/04/05 13:13:56;;;;;;;;;;;16.50;74.70;;;;;;5038595;28;19909;-43
2021/04/05 13:16:32;;;;;;;;;;;16.40;74.30;;;;;;5038751;28;19922;-42
2021/04/05 13:19:00;;;;;;;;;;;16.50;74.40;;;;;;5038453;28;19920;-43
2021/04/05 13:21:27;;;;;;;;;;;16.50;73.60;;;;;;5038781;28;19909;-42
2021/04/05 13:23:54;;;;;;;;;;;16.50;74.60;;;;;;5038721;28;19960;-42
2021/04/05 13:26:29;;;;;;;;;;;16.60;74.60;;;;;;5038519;28;19916;-43
2021/04/05 13:28:55;;;;;;;;;;;16.40;74.40;;;;;;5035520;28;20264;-45
2021/04/05 13:31:22;;;;;;;;;;;16.70;74.50;;;;;;5035059;28;19909;-43
2021/04/05 13:33:48;;;;;;;;;;;16.70;74.10;;;;;;5035206;28;19959;-42
2021/04/05 13:36:14;;;;;;;;;;;16.70;74.20;;;;;;5034981;28;20291;-43
2021/04/05 13:38:44;;;;;;;;;;;16.70;74.40;;;;;;5035133;28;20368;-44
2021/04/05 13:41:15;;;;;;;;;;;16.80;74.60;;;;;;5035029;28;19910;-43
2021/04/05 13:43:41;;;;;;;;;;;;;;;;;;5035014;28;19909;-43
2021/04/05 13:46:07;;;;;;;;;;;16.90;74.30;;;;;;5034748;28;19956;-43
2021/04/05 13:48:35;;;;;;;;;;;16.90;74.20;;;;;;5034688;28;20337;-43
2021/04/05 13:51:01;;;;;;;;;;;16.80;74.00;;;;;;5034450;28;19909;-44
2021/04/05 13:53:38;;;;;;;;;;;16.80;73.70;;;;;;5034553;28;19916;-43
2021/04/05 13:56:04;;;;;;;;;;;16.90;73.70;;;;;;5034739;28;19921;-43
2021/04/05 13:58:32;;;;;;;;;;;17.00;73.10;;;;;;5034830;28;19917;-43
2021/04/05 14:01:03;;;;;;;;;;;16.80;73.10;;;;;;5034632;28;19959;-44
2021/04/05 14:03:30;;;;;;;;;;;16.90;72.70;;;;;;5034353;28;19944;-43
2021/04/05 14:05:57;;;;;;;;;;;16.70;71.60;;;;;;5032618;28;19909;-42
2021/04/05 14:08:24;;;;;;;;;;;16.80;72.90;;;;;;5033823;28;19921;-57
2021/04/05 14:10:53;;;;;;;;;;;16.70;73.00;;;;;;5033774;28;20339;-56
2021/04/05 14:13:26;;;;;;;;;;;16.70;74.00;;;;;;5033760;28;19947;-58
2021/04/05 14:15:52;;;;;;;;;;;16.70;74.00;;;;;;5033629;28;19921;-58
2021/04/05 14:18:19;;;;;;;;;;;16.50;74.80;;;;;;5033375;28;19966;-57
2021/04/05 14:20:45;;;;;;;;;;;16.70;74.60;;;;;;5034498;28;19916;-57
2021/04/05 14:23:13;;;;;;;;;;;16.60;74.30;;;;;;5034459;28;20363;-57
2021/04/05 14:25:59;;;;;;;;;;;16.90;74.70;;;;;;5034257;28;20102;-58
2021/04/05 14:28:43;;;;;;;;;;;16.90;74.60;;;;;;5034408;28;19909;-57
2021/04/05 14:31:08;;;;;;;;;;;;;;;;;;5034123;28;19967;-57
2021/04/05 14:33:36;;;;;;;;;;;16.90;74.30;;;;;;5033986;28;19909;-56
2021/04/05 14:36:02;;;;;;;;;;;17.00;74.40;;;;;;5033609;28;19917;-57
2021/04/05 14:38:29;;;;;;;;;;;17.20;73.50;;;;;;5033696;28;20299;-57
2021/04/05 14:41:07;;;;;;;;;;;17.00;73.40;;;;;;5032845;28;19996;-57